sensor_id;sensor_type;location;lat;lon;timestamp;P1;durP1;ratioP1;P2;durP2;ratioP2
70780;SDS011;59514;48.810;2.134;2022-09-28T00:01:44;5.78;;;1.80;;
70780;SDS011;59514;48.810;2.134;2022-09-28T00:04:09;6.80;;;2.00;;
70780;SDS011;59514;48.810;2.134;2022-09-28T00:06:36;6.40;;;1.73;;
70780;SDS011;59514;48.810;2.134;2022-09-28T00:09:02;8.10;;;1.90;;
70780;SDS011;59514;48.810;2.134;2022-09-28T00:11:28;5.75;;;1.77;;
70780;SDS011;59514;48.810;2.134;2022-09-28T00:13:54;5.47;;;1.73;;
70780;SDS011;59514;48.810;2.134;2022-09-28T00:16:26;5.00;;;1.88;;
70780;SDS011;59514;48.810;2.134;2022-09-28T00:18:54;7.97;;;2.15;;
70780;SDS011;59514;48.810;2.134;2022-09-28T00:21:23;7.25;;;2.38;;
70780;SDS011;59514;48.810;2.134;2022-09-28T00:23:51;5.88;;;1.30;;
70780;SDS011;59514;48.810;2.134;2022-09-28T00:26:36;5.63;;;1.70;;
70780;SDS011;59514;48.810;2.134;2022-09-28T00:29:04;7.25;;;2.50;;
70780;SDS011;59514;48.810;2.134;2022-09-28T00:31:31;6.20;;;1.92;;
70780;SDS011;59514;48.810;2.134;2022-09-28T00:33:58;8.90;;;2.05;;
70780;SDS011;59514;48.810;2.134;2022-09-28T00:36:25;6.57;;;1.60;;
70780;SDS011;59514;48.810;2.134;2022-09-28T00:38:52;4.88;;;1.65;;
70780;SDS011;59514;48.810;2.134;2022-09-28T00:41:20;5.40;;;1.60;;
70780;SDS011;59514;48.810;2.134;2022-09-28T00:43:46;7.15;;;1.60;;
70780;SDS011;59514;48.810;2.134;2022-09-28T00:46:13;4.18;;;2.00;;
70780;SDS011;59514;48.810;2.134;2022-09-28T00:48:42;5.25;;;1.85;;
70780;SDS011;59514;48.810;2.134;2022-09-28T00:51:18;6.25;;;1.83;;
70780;SDS011;59514;48.810;2.134;2022-09-28T00:53:45;5.25;;;1.98;;
70780;SDS011;59514;48.810;2.134;2022-09-28T00:56:12;8.88;;;2.70;;
70780;SDS011;59514;48.810;2.134;2022-09-28T01:01:10;3.85;;;1.75;;
70780;SDS011;59514;48.810;2.134;2022-09-28T01:03:36;3.63;;;1.63;;
70780;SDS011;59514;48.810;2.134;2022-09-28T01:06:05;4.75;;;1.60;;
70780;SDS011;59514;48.810;2.134;2022-09-28T01:08:32;6.03;;;2.10;;
70780;SDS011;59514;48.810;2.134;2022-09-28T01:10:59;7.10;;;2.17;;
70780;SDS011;59514;48.810;2.134;2022-09-28T01:13:25;4.75;;;2.45;;
70780;SDS011;59514;48.810;2.134;2022-09-28T01:15:54;4.38;;;1.70;;
70780;SDS011;59514;48.810;2.134;2022-09-28T01:18:36;7.30;;;1.92;;
70780;SDS011;59514;48.810;2.134;2022-09-28T01:21:13;8.40;;;2.28;;
70780;SDS011;59514;48.810;2.134;2022-09-28T01:28:53;6.05;;;2.13;;
70780;SDS011;59514;48.810;2.134;2022-09-28T01:31:29;7.75;;;1.80;;
70780;SDS011;59514;48.810;2.134;2022-09-28T01:33:57;6.40;;;2.00;;
70780;SDS011;59514;48.810;2.134;2022-09-28T01:36:39;5.72;;;1.75;;
70780;SDS011;59514;48.810;2.134;2022-09-28T01:39:10;7.68;;;2.38;;
70780;SDS011;59514;48.810;2.134;2022-09-28T01:41:40;5.97;;;2.00;;
70780;SDS011;59514;48.810;2.134;2022-09-28T01:44:09;5.88;;;1.90;;
70780;SDS011;59514;48.810;2.134;2022-09-28T01:46:39;5.63;;;1.80;;
70780;SDS011;59514;48.810;2.134;2022-09-28T01:49:13;5.38;;;1.73;;
70780;SDS011;59514;48.810;2.134;2022-09-28T01:51:51;10.02;;;2.75;;
70780;SDS011;59514;48.810;2.134;2022-09-28T01:54:30;7.85;;;2.13;;
70780;SDS011;59514;48.810;2.134;2022-09-28T01:57:18;6.07;;;2.10;;
70780;SDS011;59514;48.810;2.134;2022-09-28T01:59:56;5.93;;;1.67;;
70780;SDS011;59514;48.810;2.134;2022-09-28T02:02:42;6.03;;;1.73;;
70780;SDS011;59514;48.810;2.134;2022-09-28T02:05:14;6.80;;;2.05;;
70780;SDS011;59514;48.810;2.134;2022-09-28T02:07:47;6.63;;;2.03;;
70780;SDS011;59514;48.810;2.134;2022-09-28T02:10:21;8.48;;;2.17;;
70780;SDS011;59514;48.810;2.134;2022-09-28T02:12:53;4.93;;;1.77;;
70780;SDS011;59514;48.810;2.134;2022-09-28T02:15:27;7.40;;;1.70;;
70780;SDS011;59514;48.810;2.134;2022-09-28T02:17:59;5.63;;;2.00;;
70780;SDS011;59514;48.810;2.134;2022-09-28T02:20:24;8.63;;;2.20;;
70780;SDS011;59514;48.810;2.134;2022-09-28T02:22:50;6.88;;;1.58;;
70780;SDS011;59514;48.810;2.134;2022-09-28T02:25:22;5.80;;;1.85;;
70780;SDS011;59514;48.810;2.134;2022-09-28T02:28:14;5.18;;;1.80;;
70780;SDS011;59514;48.810;2.134;2022-09-28T02:30:40;6.40;;;2.05;;
70780;SDS011;59514;48.810;2.134;2022-09-28T02:33:24;5.55;;;1.77;;
70780;SDS011;59514;48.810;2.134;2022-09-28T02:35:56;5.72;;;2.25;;
70780;SDS011;59514;48.810;2.134;2022-09-28T02:38:23;7.80;;;2.00;;
70780;SDS011;59514;48.810;2.134;2022-09-28T02:40:54;3.78;;;1.52;;
70780;SDS011;59514;48.810;2.134;2022-09-28T02:43:32;6.50;;;2.40;;
70780;SDS011;59514;48.810;2.134;2022-09-28T02:58:58;7.25;;;1.80;;
70780;SDS011;59514;48.810;2.134;2022-09-28T03:07:28;6.97;;;1.90;;
70780;SDS011;59514;48.810;2.134;2022-09-28T03:10:04;6.72;;;2.75;;
70780;SDS011;59514;48.810;2.134;2022-09-28T03:12:42;8.60;;;2.22;;
70780;SDS011;59514;48.810;2.134;2022-09-28T03:20:18;6.28;;;2.45;;
70780;SDS011;59514;48.810;2.134;2022-09-28T03:22:43;9.23;;;2.40;;
70780;SDS011;59514;48.810;2.134;2022-09-28T03:25:09;6.95;;;2.58;;
70780;SDS011;59514;48.810;2.134;2022-09-28T03:27:35;7.05;;;2.80;;
70780;SDS011;59514;48.810;2.134;2022-09-28T03:30:00;6.43;;;2.50;;
70780;SDS011;59514;48.810;2.134;2022-09-28T03:32:26;7.18;;;2.40;;
70780;SDS011;59514;48.810;2.134;2022-09-28T03:34:51;7.70;;;2.58;;
70780;SDS011;59514;48.810;2.134;2022-09-28T03:37:16;10.85;;;3.40;;
70780;SDS011;59514;48.810;2.134;2022-09-28T03:39:42;8.13;;;2.72;;
70780;SDS011;59514;48.810;2.134;2022-09-28T03:42:07;11.93;;;3.83;;
70780;SDS011;59514;48.810;2.134;2022-09-28T03:44:32;10.43;;;3.33;;
70780;SDS011;59514;48.810;2.134;2022-09-28T03:46:58;10.90;;;3.67;;
70780;SDS011;59514;48.810;2.134;2022-09-28T03:49:23;14.52;;;5.82;;
70780;SDS011;59514;48.810;2.134;2022-09-28T03:51:48;12.68;;;4.53;;
70780;SDS011;59514;48.810;2.134;2022-09-28T03:54:14;8.90;;;3.67;;
70780;SDS011;59514;48.810;2.134;2022-09-28T03:56:39;8.98;;;3.40;;
70780;SDS011;59514;48.810;2.134;2022-09-28T03:59:05;9.90;;;3.28;;
70780;SDS011;59514;48.810;2.134;2022-09-28T04:01:30;6.25;;;2.45;;
70780;SDS011;59514;48.810;2.134;2022-09-28T04:03:56;7.30;;;2.78;;
70780;SDS011;59514;48.810;2.134;2022-09-28T04:06:22;8.90;;;2.88;;
70780;SDS011;59514;48.810;2.134;2022-09-28T04:08:48;7.63;;;2.80;;
70780;SDS011;59514;48.810;2.134;2022-09-28T04:11:13;8.57;;;2.65;;
70780;SDS011;59514;48.810;2.134;2022-09-28T04:13:38;7.47;;;3.28;;
70780;SDS011;59514;48.810;2.134;2022-09-28T04:16:04;7.57;;;2.40;;
70780;SDS011;59514;48.810;2.134;2022-09-28T04:18:30;7.55;;;2.40;;
70780;SDS011;59514;48.810;2.134;2022-09-28T04:21:03;8.30;;;2.72;;
70780;SDS011;59514;48.810;2.134;2022-09-28T04:23:30;7.38;;;2.95;;
70780;SDS011;59514;48.810;2.134;2022-09-28T04:25:57;7.30;;;2.90;;
70780;SDS011;59514;48.810;2.134;2022-09-28T04:28:22;11.32;;;3.38;;
70780;SDS011;59514;48.810;2.134;2022-09-28T04:31:11;6.93;;;2.70;;
70780;SDS011;59514;48.810;2.134;2022-09-28T04:33:40;5.07;;;2.53;;
70780;SDS011;59514;48.810;2.134;2022-09-28T04:36:05;6.38;;;3.00;;
70780;SDS011;59514;48.810;2.134;2022-09-28T04:38:31;8.27;;;3.60;;
70780;SDS011;59514;48.810;2.134;2022-09-28T04:40:57;10.63;;;3.58;;
70780;SDS011;59514;48.810;2.134;2022-09-28T04:43:22;6.80;;;3.25;;
70780;SDS011;59514;48.810;2.134;2022-09-28T04:45:47;9.52;;;3.40;;
70780;SDS011;59514;48.810;2.134;2022-09-28T04:48:13;7.50;;;3.10;;
70780;SDS011;59514;48.810;2.134;2022-09-28T04:50:38;7.70;;;3.15;;
70780;SDS011;59514;48.810;2.134;2022-09-28T04:53:03;10.90;;;3.50;;
70780;SDS011;59514;48.810;2.134;2022-09-28T04:55:28;6.13;;;2.97;;
70780;SDS011;59514;48.810;2.134;2022-09-28T04:57:57;8.27;;;3.83;;
70780;SDS011;59514;48.810;2.134;2022-09-28T05:00:26;5.90;;;3.08;;
70780;SDS011;59514;48.810;2.134;2022-09-28T05:02:53;7.88;;;3.38;;
70780;SDS011;59514;48.810;2.134;2022-09-28T05:05:18;6.78;;;3.63;;
70780;SDS011;59514;48.810;2.134;2022-09-28T05:07:44;8.07;;;3.88;;
70780;SDS011;59514;48.810;2.134;2022-09-28T05:10:10;6.93;;;3.30;;
70780;SDS011;59514;48.810;2.134;2022-09-28T05:12:35;10.40;;;4.13;;
70780;SDS011;59514;48.810;2.134;2022-09-28T05:15:00;11.07;;;4.30;;
70780;SDS011;59514;48.810;2.134;2022-09-28T05:17:26;7.72;;;3.80;;
70780;SDS011;59514;48.810;2.134;2022-09-28T05:19:51;12.38;;;4.22;;
70780;SDS011;59514;48.810;2.134;2022-09-28T05:22:16;10.50;;;4.55;;
70780;SDS011;59514;48.810;2.134;2022-09-28T05:24:42;12.55;;;4.55;;
70780;SDS011;59514;48.810;2.134;2022-09-28T05:27:07;7.78;;;3.65;;
70780;SDS011;59514;48.810;2.134;2022-09-28T05:29:32;10.73;;;4.03;;
70780;SDS011;59514;48.810;2.134;2022-09-28T05:32:00;7.88;;;4.10;;
70780;SDS011;59514;48.810;2.134;2022-09-28T05:34:26;10.10;;;3.78;;
70780;SDS011;59514;48.810;2.134;2022-09-28T05:36:51;11.13;;;4.30;;
70780;SDS011;59514;48.810;2.134;2022-09-28T05:39:16;5.57;;;3.80;;
70780;SDS011;59514;48.810;2.134;2022-09-28T05:41:42;11.63;;;4.45;;
70780;SDS011;59514;48.810;2.134;2022-09-28T05:44:07;9.25;;;3.97;;
70780;SDS011;59514;48.810;2.134;2022-09-28T05:46:32;6.68;;;3.55;;
70780;SDS011;59514;48.810;2.134;2022-09-28T05:49:00;11.07;;;5.00;;
70780;SDS011;59514;48.810;2.134;2022-09-28T05:51:25;11.88;;;4.93;;
70780;SDS011;59514;48.810;2.134;2022-09-28T05:53:54;13.38;;;4.35;;
70780;SDS011;59514;48.810;2.134;2022-09-28T05:56:20;11.88;;;3.90;;
70780;SDS011;59514;48.810;2.134;2022-09-28T05:58:45;9.02;;;3.95;;
70780;SDS011;59514;48.810;2.134;2022-09-28T06:01:10;11.75;;;3.88;;
70780;SDS011;59514;48.810;2.134;2022-09-28T06:03:36;9.02;;;3.58;;
70780;SDS011;59514;48.810;2.134;2022-09-28T06:06:01;9.02;;;3.83;;
70780;SDS011;59514;48.810;2.134;2022-09-28T06:08:26;13.85;;;4.40;;
70780;SDS011;59514;48.810;2.134;2022-09-28T06:10:52;8.02;;;3.75;;
70780;SDS011;59514;48.810;2.134;2022-09-28T06:13:17;8.07;;;3.30;;
70780;SDS011;59514;48.810;2.134;2022-09-28T06:15:43;8.00;;;4.22;;
70780;SDS011;59514;48.810;2.134;2022-09-28T06:18:10;8.80;;;3.95;;
70780;SDS011;59514;48.810;2.134;2022-09-28T06:20:39;9.93;;;4.32;;
70780;SDS011;59514;48.810;2.134;2022-09-28T06:23:07;8.45;;;3.63;;
70780;SDS011;59514;48.810;2.134;2022-09-28T06:25:34;10.45;;;4.22;;
70780;SDS011;59514;48.810;2.134;2022-09-28T06:28:03;7.20;;;4.22;;
70780;SDS011;59514;48.810;2.134;2022-09-28T06:30:32;9.15;;;4.00;;
70780;SDS011;59514;48.810;2.134;2022-09-28T06:32:59;8.85;;;4.15;;
70780;SDS011;59514;48.810;2.134;2022-09-28T06:35:26;11.57;;;4.25;;
70780;SDS011;59514;48.810;2.134;2022-09-28T06:37:54;10.13;;;4.65;;
70780;SDS011;59514;48.810;2.134;2022-09-28T06:40:20;8.95;;;4.10;;
70780;SDS011;59514;48.810;2.134;2022-09-28T06:42:53;10.10;;;4.45;;
70780;SDS011;59514;48.810;2.134;2022-09-28T06:45:33;9.65;;;4.22;;
70780;SDS011;59514;48.810;2.134;2022-09-28T06:47:59;10.20;;;4.38;;
70780;SDS011;59514;48.810;2.134;2022-09-28T06:50:29;8.40;;;4.40;;
70780;SDS011;59514;48.810;2.134;2022-09-28T06:52:57;11.35;;;4.13;;
70780;SDS011;59514;48.810;2.134;2022-09-28T06:55:23;8.95;;;4.20;;
70780;SDS011;59514;48.810;2.134;2022-09-28T06:57:58;9.45;;;4.55;;
70780;SDS011;59514;48.810;2.134;2022-09-28T07:00:29;10.85;;;4.07;;
70780;SDS011;59514;48.810;2.134;2022-09-28T07:02:57;9.77;;;4.13;;
70780;SDS011;59514;48.810;2.134;2022-09-28T07:05:26;9.40;;;4.47;;
70780;SDS011;59514;48.810;2.134;2022-09-28T07:07:55;9.07;;;3.90;;
70780;SDS011;59514;48.810;2.134;2022-09-28T07:10:22;7.10;;;3.80;;
70780;SDS011;59514;48.810;2.134;2022-09-28T07:12:49;6.07;;;3.47;;
70780;SDS011;59514;48.810;2.134;2022-09-28T07:15:15;5.97;;;3.70;;
70780;SDS011;59514;48.810;2.134;2022-09-28T07:17:41;7.70;;;3.42;;
70780;SDS011;59514;48.810;2.134;2022-09-28T07:20:06;7.03;;;3.03;;
70780;SDS011;59514;48.810;2.134;2022-09-28T07:22:34;6.50;;;2.90;;
70780;SDS011;59514;48.810;2.134;2022-09-28T07:24:59;9.13;;;3.22;;
70780;SDS011;59514;48.810;2.134;2022-09-28T07:27:25;7.07;;;2.92;;
70780;SDS011;59514;48.810;2.134;2022-09-28T07:29:51;7.72;;;2.92;;
70780;SDS011;59514;48.810;2.134;2022-09-28T07:32:18;8.45;;;2.70;;
70780;SDS011;59514;48.810;2.134;2022-09-28T07:34:44;6.97;;;2.58;;
70780;SDS011;59514;48.810;2.134;2022-09-28T07:37:09;6.47;;;2.40;;
70780;SDS011;59514;48.810;2.134;2022-09-28T07:39:37;5.47;;;2.78;;
70780;SDS011;59514;48.810;2.134;2022-09-28T07:42:22;4.80;;;2.78;;
70780;SDS011;59514;48.810;2.134;2022-09-28T07:44:47;4.80;;;2.42;;
70780;SDS011;59514;48.810;2.134;2022-09-28T07:47:13;7.85;;;2.38;;
70780;SDS011;59514;48.810;2.134;2022-09-28T07:49:38;7.63;;;2.75;;
70780;SDS011;59514;48.810;2.134;2022-09-28T07:52:03;8.13;;;3.15;;
70780;SDS011;59514;48.810;2.134;2022-09-28T07:54:30;7.15;;;2.28;;
70780;SDS011;59514;48.810;2.134;2022-09-28T07:56:55;7.40;;;2.33;;
70780;SDS011;59514;48.810;2.134;2022-09-28T07:59:21;5.22;;;2.13;;
70780;SDS011;59514;48.810;2.134;2022-09-28T08:01:46;7.07;;;1.95;;
70780;SDS011;59514;48.810;2.134;2022-09-28T08:04:13;8.77;;;2.50;;
70780;SDS011;59514;48.810;2.134;2022-09-28T08:06:39;8.07;;;3.13;;
70780;SDS011;59514;48.810;2.134;2022-09-28T08:09:04;7.88;;;2.20;;
70780;SDS011;59514;48.810;2.134;2022-09-28T08:11:30;5.53;;;2.30;;
70780;SDS011;59514;48.810;2.134;2022-09-28T08:13:55;7.05;;;2.63;;
70780;SDS011;59514;48.810;2.134;2022-09-28T08:16:22;8.02;;;3.25;;
70780;SDS011;59514;48.810;2.134;2022-09-28T08:18:48;7.97;;;3.17;;
70780;SDS011;59514;48.810;2.134;2022-09-28T08:21:13;4.60;;;2.45;;
70780;SDS011;59514;48.810;2.134;2022-09-28T08:23:57;10.90;;;5.40;;
70780;SDS011;59514;48.810;2.134;2022-09-28T08:26:23;6.70;;;2.95;;
70780;SDS011;59514;48.810;2.134;2022-09-28T08:28:48;8.48;;;2.78;;
70780;SDS011;59514;48.810;2.134;2022-09-28T08:31:14;7.38;;;2.55;;
70780;SDS011;59514;48.810;2.134;2022-09-28T08:33:39;8.77;;;3.17;;
70780;SDS011;59514;48.810;2.134;2022-09-28T08:36:07;5.72;;;2.60;;
70780;SDS011;59514;48.810;2.134;2022-09-28T08:38:33;5.50;;;2.40;;
70780;SDS011;59514;48.810;2.134;2022-09-28T08:46:14;5.53;;;2.75;;
70780;SDS011;59514;48.810;2.134;2022-09-28T08:48:53;8.30;;;3.05;;
70780;SDS011;59514;48.810;2.134;2022-09-28T08:51:24;6.57;;;2.63;;
70780;SDS011;59514;48.810;2.134;2022-09-28T08:53:56;5.28;;;2.00;;
70780;SDS011;59514;48.810;2.134;2022-09-28T08:56:42;7.40;;;2.35;;
70780;SDS011;59514;48.810;2.134;2022-09-28T08:59:16;6.47;;;2.42;;
70780;SDS011;59514;48.810;2.134;2022-09-28T09:01:46;8.63;;;2.03;;
70780;SDS011;59514;48.810;2.134;2022-09-28T09:04:14;9.68;;;2.28;;
70780;SDS011;59514;48.810;2.134;2022-09-28T09:06:44;5.03;;;1.92;;
70780;SDS011;59514;48.810;2.134;2022-09-28T09:12:09;5.03;;;1.92;;
70780;SDS011;59514;48.810;2.134;2022-09-28T09:18:00;4.63;;;1.60;;
70780;SDS011;59514;48.810;2.134;2022-09-28T09:20:39;4.03;;;1.60;;
70780;SDS011;59514;48.810;2.134;2022-09-28T09:25:54;5.75;;;1.77;;
70780;SDS011;59514;48.810;2.134;2022-09-28T09:28:31;5.60;;;1.45;;
70780;SDS011;59514;48.810;2.134;2022-09-28T09:31:07;4.80;;;2.05;;
70780;SDS011;59514;48.810;2.134;2022-09-28T09:36:28;3.80;;;1.10;;
70780;SDS011;59514;48.810;2.134;2022-09-28T09:41:46;3.55;;;1.38;;
70780;SDS011;59514;48.810;2.134;2022-09-28T09:47:06;4.97;;;1.65;;
70780;SDS011;59514;48.810;2.134;2022-09-28T09:59:59;4.75;;;1.30;;
70780;SDS011;59514;48.810;2.134;2022-09-28T10:02:27;4.10;;;1.20;;
70780;SDS011;59514;48.810;2.134;2022-09-28T10:05:17;4.55;;;0.90;;
70780;SDS011;59514;48.810;2.134;2022-09-28T10:10:27;6.63;;;1.38;;
70780;SDS011;59514;48.810;2.134;2022-09-28T10:12:54;7.25;;;1.52;;
70780;SDS011;59514;48.810;2.134;2022-09-28T10:15:27;3.58;;;1.30;;
70780;SDS011;59514;48.810;2.134;2022-09-28T10:17:54;4.05;;;1.00;;
70780;SDS011;59514;48.810;2.134;2022-09-28T10:20:22;5.93;;;1.30;;
70780;SDS011;59514;48.810;2.134;2022-09-28T10:22:52;2.55;;;1.00;;
70780;SDS011;59514;48.810;2.134;2022-09-28T10:25:20;3.80;;;1.17;;
70780;SDS011;59514;48.810;2.134;2022-09-28T10:27:46;4.47;;;1.17;;
70780;SDS011;59514;48.810;2.134;2022-09-28T10:30:17;3.03;;;1.05;;
70780;SDS011;59514;48.810;2.134;2022-09-28T10:32:48;2.83;;;1.08;;
70780;SDS011;59514;48.810;2.134;2022-09-28T10:35:29;5.65;;;1.20;;
70780;SDS011;59514;48.810;2.134;2022-09-28T10:43:23;3.92;;;1.45;;
70780;SDS011;59514;48.810;2.134;2022-09-28T10:48:44;3.83;;;1.50;;
70780;SDS011;59514;48.810;2.134;2022-09-28T10:51:11;5.13;;;1.67;;
70780;SDS011;59514;48.810;2.134;2022-09-28T10:53:37;6.30;;;1.38;;
70780;SDS011;59514;48.810;2.134;2022-09-28T10:56:04;3.80;;;1.23;;
70780;SDS011;59514;48.810;2.134;2022-09-28T10:58:36;2.90;;;1.25;;
70780;SDS011;59514;48.810;2.134;2022-09-28T11:04:17;4.53;;;1.27;;
70780;SDS011;59514;48.810;2.134;2022-09-28T11:06:35;5.53;;;1.40;;
70780;SDS011;59514;48.810;2.134;2022-09-28T11:09:04;3.85;;;1.75;;
70780;SDS011;59514;48.810;2.134;2022-09-28T11:11:40;6.00;;;2.05;;
70780;SDS011;59514;48.810;2.134;2022-09-28T11:14:23;2.88;;;1.27;;
70780;SDS011;59514;48.810;2.134;2022-09-28T11:19:46;5.07;;;1.60;;
70780;SDS011;59514;48.810;2.134;2022-09-28T11:22:18;2.92;;;1.58;;
70780;SDS011;59514;48.810;2.134;2022-09-28T11:24:46;4.43;;;1.83;;
70780;SDS011;59514;48.810;2.134;2022-09-28T11:27:19;4.35;;;1.40;;
70780;SDS011;59514;48.810;2.134;2022-09-28T11:29:52;4.93;;;1.60;;
70780;SDS011;59514;48.810;2.134;2022-09-28T11:32:23;3.55;;;1.27;;
70780;SDS011;59514;48.810;2.134;2022-09-28T11:34:52;1.45;;;1.02;;
70780;SDS011;59514;48.810;2.134;2022-09-28T11:42:42;3.38;;;1.20;;
70780;SDS011;59514;48.810;2.134;2022-09-28T11:50:47;3.60;;;0.98;;
70780;SDS011;59514;48.810;2.134;2022-09-28T11:55:50;3.78;;;1.20;;
70780;SDS011;59514;48.810;2.134;2022-09-28T11:58:32;2.92;;;1.30;;
70780;SDS011;59514;48.810;2.134;2022-09-28T12:03:41;4.05;;;1.23;;
70780;SDS011;59514;48.810;2.134;2022-09-28T12:06:17;3.45;;;0.85;;
70780;SDS011;59514;48.810;2.134;2022-09-28T12:08:47;5.43;;;1.23;;
70780;SDS011;59514;48.810;2.134;2022-09-28T12:11:26;3.20;;;1.15;;
70780;SDS011;59514;48.810;2.134;2022-09-28T12:14:00;4.20;;;1.02;;
70780;SDS011;59514;48.810;2.134;2022-09-28T12:17:16;5.28;;;1.25;;
70780;SDS011;59514;48.810;2.134;2022-09-28T12:19:23;3.72;;;1.40;;
70780;SDS011;59514;48.810;2.134;2022-09-28T12:21:55;5.65;;;1.50;;
70780;SDS011;59514;48.810;2.134;2022-09-28T12:27:09;3.70;;;0.82;;
70780;SDS011;59514;48.810;2.134;2022-09-28T12:32:13;1.65;;;0.90;;
70780;SDS011;59514;48.810;2.134;2022-09-28T12:34:44;4.45;;;1.20;;
70780;SDS011;59514;48.810;2.134;2022-09-28T12:37:22;3.30;;;0.93;;
70780;SDS011;59514;48.810;2.134;2022-09-28T12:42:48;2.58;;;0.82;;
70780;SDS011;59514;48.810;2.134;2022-09-28T13:00:04;7.22;;;1.40;;
70780;SDS011;59514;48.810;2.134;2022-09-28T13:10:48;2.35;;;1.00;;
70780;SDS011;59514;48.810;2.134;2022-09-28T13:18:48;4.32;;;1.00;;
70780;SDS011;59514;48.810;2.134;2022-09-28T13:21:46;4.72;;;0.98;;
70780;SDS011;59514;48.810;2.134;2022-09-28T13:24:30;2.70;;;0.80;;
70780;SDS011;59514;48.810;2.134;2022-09-28T13:27:01;3.40;;;0.90;;
70780;SDS011;59514;48.810;2.134;2022-09-28T13:29:35;2.10;;;0.90;;
70780;SDS011;59514;48.810;2.134;2022-09-28T13:32:03;3.35;;;1.08;;
70780;SDS011;59514;48.810;2.134;2022-09-28T13:34:32;5.13;;;0.75;;
70780;SDS011;59514;48.810;2.134;2022-09-28T13:37:18;3.30;;;1.10;;
70780;SDS011;59514;48.810;2.134;2022-09-28T13:39:55;1.08;;;0.75;;
70780;SDS011;59514;48.810;2.134;2022-09-28T13:42:24;2.65;;;0.80;;
70780;SDS011;59514;48.810;2.134;2022-09-28T13:53:10;3.53;;;1.00;;
70780;SDS011;59514;48.810;2.134;2022-09-28T14:05:44;1.50;;;0.60;;
70780;SDS011;59514;48.810;2.134;2022-09-28T14:08:28;1.77;;;0.57;;
70780;SDS011;59514;48.810;2.134;2022-09-28T14:13:57;0.50;;;0.50;;
70780;SDS011;59514;48.810;2.134;2022-09-28T14:16:24;3.10;;;0.70;;
70780;SDS011;59514;48.810;2.134;2022-09-28T14:29:42;3.13;;;0.85;;
70780;SDS011;59514;48.810;2.134;2022-09-28T14:34:43;2.93;;;1.07;;
70780;SDS011;59514;48.810;2.134;2022-09-28T14:37:24;1.92;;;0.45;;
70780;SDS011;59514;48.810;2.134;2022-09-28T14:40:16;0.93;;;0.60;;
70780;SDS011;59514;48.810;2.134;2022-09-28T14:43:23;1.98;;;0.60;;
70780;SDS011;59514;48.810;2.134;2022-09-28T14:56:42;1.73;;;0.70;;
70780;SDS011;59514;48.810;2.134;2022-09-28T14:59:16;1.30;;;0.98;;
70780;SDS011;59514;48.810;2.134;2022-09-28T15:01:50;2.30;;;1.00;;
70780;SDS011;59514;48.810;2.134;2022-09-28T15:04:20;2.47;;;1.42;;
70780;SDS011;59514;48.810;2.134;2022-09-28T15:06:50;2.63;;;0.98;;
70780;SDS011;59514;48.810;2.134;2022-09-28T15:11:50;1.33;;;0.95;;
70780;SDS011;59514;48.810;2.134;2022-09-28T15:14:19;1.05;;;0.77;;
70780;SDS011;59514;48.810;2.134;2022-09-28T15:16:45;1.95;;;0.98;;
70780;SDS011;59514;48.810;2.134;2022-09-28T15:19:15;3.05;;;0.63;;
70780;SDS011;59514;48.810;2.134;2022-09-28T15:21:50;0.82;;;0.60;;
70780;SDS011;59514;48.810;2.134;2022-09-28T15:24:53;1.15;;;0.60;;
70780;SDS011;59514;48.810;2.134;2022-09-28T15:27:13;1.40;;;0.60;;
70780;SDS011;59514;48.810;2.134;2022-09-28T15:29:40;1.15;;;0.73;;
70780;SDS011;59514;48.810;2.134;2022-09-28T15:32:09;0.82;;;0.60;;
70780;SDS011;59514;48.810;2.134;2022-09-28T15:34:47;4.13;;;0.90;;
70780;SDS011;59514;48.810;2.134;2022-09-28T15:37:25;1.30;;;0.60;;
70780;SDS011;59514;48.810;2.134;2022-09-28T15:39:56;1.55;;;0.52;;
70780;SDS011;59514;48.810;2.134;2022-09-28T15:42:23;1.77;;;0.80;;
70780;SDS011;59514;48.810;2.134;2022-09-28T15:47:51;1.42;;;0.55;;
70780;SDS011;59514;48.810;2.134;2022-09-28T15:50:26;0.70;;;0.50;;
70780;SDS011;59514;48.810;2.134;2022-09-28T15:58:18;1.50;;;0.73;;
70780;SDS011;59514;48.810;2.134;2022-09-28T16:00:49;3.58;;;0.95;;
70780;SDS011;59514;48.810;2.134;2022-09-28T16:03:27;1.10;;;0.70;;
70780;SDS011;59514;48.810;2.134;2022-09-28T16:08:22;2.47;;;1.13;;
70780;SDS011;59514;48.810;2.134;2022-09-28T16:11:03;1.48;;;0.70;;
70780;SDS011;59514;48.810;2.134;2022-09-28T16:13:41;2.63;;;1.10;;
70780;SDS011;59514;48.810;2.134;2022-09-28T16:16:34;1.33;;;0.70;;
70780;SDS011;59514;48.810;2.134;2022-09-28T16:19:02;2.08;;;0.95;;
70780;SDS011;59514;48.810;2.134;2022-09-28T16:24:02;1.60;;;0.75;;
70780;SDS011;59514;48.810;2.134;2022-09-28T16:26:46;2.85;;;1.00;;
70780;SDS011;59514;48.810;2.134;2022-09-28T16:37:42;2.78;;;1.17;;
70780;SDS011;59514;48.810;2.134;2022-09-28T16:40:08;3.17;;;1.77;;
70780;SDS011;59514;48.810;2.134;2022-09-28T16:42:35;9.57;;;6.07;;
70780;SDS011;59514;48.810;2.134;2022-09-28T16:45:04;4.50;;;1.40;;
70780;SDS011;59514;48.810;2.134;2022-09-28T16:47:31;1.08;;;0.95;;
70780;SDS011;59514;48.810;2.134;2022-09-28T16:50:03;3.65;;;2.20;;
70780;SDS011;59514;48.810;2.134;2022-09-28T16:52:30;1.67;;;1.17;;
70780;SDS011;59514;48.810;2.134;2022-09-28T16:55:14;2.60;;;1.45;;
70780;SDS011;59514;48.810;2.134;2022-09-28T16:57:40;2.53;;;1.65;;
70780;SDS011;59514;48.810;2.134;2022-09-28T17:00:17;3.00;;;1.80;;
70780;SDS011;59514;48.810;2.134;2022-09-28T17:02:47;2.05;;;1.30;;
70780;SDS011;59514;48.810;2.134;2022-09-28T17:05:14;1.55;;;0.80;;
70780;SDS011;59514;48.810;2.134;2022-09-28T17:07:41;1.85;;;1.13;;
70780;SDS011;59514;48.810;2.134;2022-09-28T17:10:13;2.63;;;1.63;;
70780;SDS011;59514;48.810;2.134;2022-09-28T17:12:40;3.05;;;1.20;;
70780;SDS011;59514;48.810;2.134;2022-09-28T17:15:06;1.23;;;0.70;;
70780;SDS011;59514;48.810;2.134;2022-09-28T17:17:31;1.25;;;0.80;;
70780;SDS011;59514;48.810;2.134;2022-09-28T17:19:57;2.72;;;0.98;;
70780;SDS011;59514;48.810;2.134;2022-09-28T17:22:22;1.02;;;0.75;;
70780;SDS011;59514;48.810;2.134;2022-09-28T17:24:47;2.08;;;0.80;;
70780;SDS011;59514;48.810;2.134;2022-09-28T17:27:14;1.25;;;0.70;;
70780;SDS011;59514;48.810;2.134;2022-09-28T17:29:42;1.75;;;0.80;;
70780;SDS011;59514;48.810;2.134;2022-09-28T17:32:11;2.17;;;0.80;;
70780;SDS011;59514;48.810;2.134;2022-09-28T17:34:43;1.92;;;1.10;;
70780;SDS011;59514;48.810;2.134;2022-09-28T17:37:12;1.85;;;1.38;;
70780;SDS011;59514;48.810;2.134;2022-09-28T17:39:38;2.10;;;1.90;;
70780;SDS011;59514;48.810;2.134;2022-09-28T17:42:04;1.40;;;1.30;;
70780;SDS011;59514;48.810;2.134;2022-09-28T17:44:29;3.20;;;2.67;;
70780;SDS011;59514;48.810;2.134;2022-09-28T17:46:54;3.00;;;2.55;;
70780;SDS011;59514;48.810;2.134;2022-09-28T17:49:20;3.10;;;1.80;;
70780;SDS011;59514;48.810;2.134;2022-09-28T17:51:45;3.40;;;1.58;;
70780;SDS011;59514;48.810;2.134;2022-09-28T17:54:12;2.30;;;1.88;;
70780;SDS011;59514;48.810;2.134;2022-09-28T17:56:37;3.80;;;3.35;;
70780;SDS011;59514;48.810;2.134;2022-09-28T17:59:04;5.57;;;5.07;;
70780;SDS011;59514;48.810;2.134;2022-09-28T18:01:31;4.57;;;4.13;;
70780;SDS011;59514;48.810;2.134;2022-09-28T18:04:00;4.30;;;3.90;;
70780;SDS011;59514;48.810;2.134;2022-09-28T18:06:27;5.07;;;4.47;;
70780;SDS011;59514;48.810;2.134;2022-09-28T18:08:53;3.92;;;3.63;;
70780;SDS011;59514;48.810;2.134;2022-09-28T18:11:18;4.05;;;3.70;;
70780;SDS011;59514;48.810;2.134;2022-09-28T18:13:43;3.42;;;3.03;;
70780;SDS011;59514;48.810;2.134;2022-09-28T18:16:10;2.63;;;2.40;;
70780;SDS011;59514;48.810;2.134;2022-09-28T18:18:36;2.80;;;2.50;;
70780;SDS011;59514;48.810;2.134;2022-09-28T18:21:03;4.57;;;3.03;;
70780;SDS011;59514;48.810;2.134;2022-09-28T18:23:35;3.58;;;3.15;;
70780;SDS011;59514;48.810;2.134;2022-09-28T18:26:02;2.30;;;2.10;;